createdAt,value
2019-02-15T00:00:10.097Z,96.97
2019-02-15T00:01:10.271Z,97.44
2019-02-15T00:02:10.446Z,97.53
2019-02-15T00:03:10.626Z,97.34
2019-02-15T00:04:10.806Z,97.16
2019-02-15T00:05:10.986Z,97.53
2019-02-15T00:06:11.160Z,97.34
2019-02-15T00:07:11.343Z,97.34
2019-02-15T00:08:11.521Z,97.53
2019-02-15T00:09:11.702Z,97.53
2019-02-15T00:10:11.876Z,97.16
2019-02-15T00:11:12.059Z,96.97
2019-02-15T00:12:12.256Z,97.16
2019-02-15T00:13:13.844Z,97.82
2019-02-15T00:14:12.614Z,97.82
2019-02-15T00:15:12.789Z,97.91
2019-02-15T00:16:12.970Z,98.20
2019-02-15T00:17:13.160Z,98.29
2019-02-15T00:18:13.338Z,98.29
2019-02-15T00:19:13.518Z,98.29
2019-02-15T00:20:13.697Z,98.29
2019-02-15T00:21:13.870Z,98.20
2019-02-15T00:22:14.062Z,98.20
2019-02-15T00:23:14.224Z,98.10
2019-02-15T00:24:14.975Z,98.10
2019-02-15T00:25:14.524Z,98.01
2019-02-15T00:26:16.544Z,98.20
2019-02-15T00:27:14.883Z,98.10
2019-02-15T00:28:15.072Z,98.29
2019-02-15T00:29:15.252Z,97.82
2019-02-15T00:30:15.427Z,98.10
2019-02-15T00:31:15.605Z,97.82
2019-02-15T00:32:15.791Z,98.48
2019-02-15T00:33:15.966Z,98.01
2019-02-15T00:34:16.155Z,98.20
2019-02-15T00:35:16.338Z,98.01
2019-02-15T00:36:16.521Z,97.72
2019-02-15T00:37:16.696Z,97.82
2019-02-15T00:38:16.879Z,97.91
2019-02-15T00:39:17.061Z,97.63
2019-02-15T00:40:17.246Z,97.34
2019-02-15T00:41:17.420Z,97.53
2019-02-15T00:42:17.601Z,97.53
2019-02-15T00:43:22.265Z,97.44
2019-02-15T00:44:17.953Z,97.44
2019-02-15T00:45:18.133Z,97.53
2019-02-15T00:46:18.316Z,97.44
2019-02-15T00:47:18.495Z,97.67
2019-02-15T00:48:18.674Z,97.34
2019-02-15T00:49:18.858Z,97.77
2019-02-15T00:50:19.032Z,97.53
2019-02-15T00:51:19.216Z,97.58
2019-02-15T00:52:19.394Z,97.49
2019-02-15T00:53:19.571Z,97.82
2019-02-15T00:54:19.750Z,97.49
2019-02-15T00:55:19.934Z,97.49
2019-02-15T00:56:20.102Z,97.30
2019-02-15T00:57:20.288Z,97.58
2019-02-15T00:58:20.464Z,97.39
2019-02-15T00:59:20.640Z,97.39
2019-02-15T01:00:20.826Z,97.58
2019-02-15T01:01:21.010Z,97.58
2019-02-15T01:02:21.185Z,97.67
2019-02-15T01:03:21.366Z,97.58
2019-02-15T01:04:21.540Z,98.14
2019-02-15T01:05:21.720Z,97.30
2019-02-15T01:06:21.899Z,97.49
2019-02-15T01:07:22.073Z,97.67
2019-02-15T01:08:22.255Z,97.20
2019-02-15T01:09:22.431Z,97.77
2019-02-15T01:10:22.616Z,97.58
2019-02-15T01:11:22.794Z,97.77
2019-02-15T01:12:22.973Z,97.77
2019-02-15T01:13:30.891Z,97.67
2019-02-15T01:14:23.330Z,97.96
2019-02-15T01:15:23.504Z,97.96
2019-02-15T01:16:23.689Z,98.05
2019-02-15T01:17:23.863Z,98.14
2019-02-15T01:18:24.056Z,98.33
2019-02-15T01:19:24.232Z,98.14
2019-02-15T01:20:24.408Z,98.24
2019-02-15T01:21:24.584Z,98.14
2019-02-15T01:22:24.765Z,98.33
2019-02-15T01:23:24.937Z,97.58
2019-02-15T01:24:25.116Z,98.05
2019-02-15T01:25:25.294Z,98.05
2019-02-15T01:26:25.475Z,97.49
2019-02-15T01:27:25.652Z,97.67
2019-02-15T01:28:25.832Z,97.86
2019-02-15T01:29:26.012Z,98.43
2019-02-15T01:30:26.191Z,98.43
2019-02-15T01:31:26.376Z,98.14
2019-02-15T01:32:26.556Z,98.33
2019-02-15T01:33:26.733Z,98.52
2019-02-15T01:34:26.920Z,98.43
2019-02-15T01:35:27.104Z,98.33
2019-02-15T01:36:27.286Z,98.24
2019-02-15T01:37:27.462Z,98.24
2019-02-15T01:38:27.660Z,98.05
2019-02-15T01:39:27.822Z,97.86
2019-02-15T01:40:28.001Z,98.24
2019-02-15T01:41:28.181Z,98.05
2019-02-15T01:42:28.364Z,98.05
2019-02-15T01:43:28.544Z,98.14
2019-02-15T01:44:28.729Z,98.24
2019-02-15T01:45:28.904Z,98.33
2019-02-15T01:46:29.080Z,98.24
2019-02-15T01:47:29.249Z,98.24
2019-02-15T01:48:29.442Z,98.05
2019-02-15T01:49:29.658Z,98.24
2019-02-15T01:50:29.808Z,97.96
2019-02-15T01:51:30.013Z,98.43
2019-02-15T01:52:30.170Z,98.24
2019-02-15T01:53:30.348Z,98.33
2019-02-15T01:54:30.532Z,98.24
2019-02-15T01:55:30.717Z,98.24
2019-02-15T01:56:30.896Z,98.24
2019-02-15T01:57:31.078Z,98.43
2019-02-15T01:58:31.271Z,98.24
2019-02-15T01:59:31.436Z,98.14
2019-02-15T02:00:31.619Z,98.14
2019-02-15T02:01:31.803Z,98.05
2019-02-15T02:02:31.978Z,98.33
2019-02-15T02:03:32.159Z,98.24
2019-02-15T02:04:32.334Z,97.96
2019-02-15T02:05:32.512Z,98.05
2019-02-15T02:06:32.690Z,98.05
2019-02-15T02:07:32.875Z,98.14
2019-02-15T02:08:33.055Z,98.24
2019-02-15T02:09:33.233Z,97.86
2019-02-15T02:10:33.403Z,97.86
2019-02-15T02:11:33.589Z,98.43
2019-02-15T02:12:33.769Z,98.14
2019-02-15T02:13:33.938Z,98.24
2019-02-15T02:14:34.114Z,98.05
2019-02-15T02:15:34.291Z,97.96
2019-02-15T02:16:34.475Z,98.33
2019-02-15T02:17:34.651Z,98.24
2019-02-15T02:18:34.835Z,98.05
2019-02-15T02:19:35.009Z,98.24
2019-02-15T02:20:35.190Z,98.05
2019-02-15T02:21:35.372Z,98.05
2019-02-15T02:22:35.544Z,98.24
2019-02-15T02:23:35.736Z,98.24
2019-02-15T02:24:35.904Z,98.33
2019-02-15T02:25:36.079Z,97.96
2019-02-15T02:26:36.257Z,98.24
2019-02-15T02:27:36.433Z,98.05
2019-02-15T02:28:36.613Z,98.33
2019-02-15T02:29:36.791Z,98.10
2019-02-15T02:30:36.967Z,98.10
2019-02-15T02:31:37.152Z,98.19
2019-02-15T02:32:37.602Z,98.00
2019-02-15T02:33:37.532Z,98.00
2019-02-15T02:34:37.714Z,98.10
2019-02-15T02:35:37.896Z,98.00
2019-02-15T02:36:38.070Z,98.00
2019-02-15T02:37:38.255Z,98.28
2019-02-15T02:38:38.432Z,98.10
2019-02-15T02:39:38.609Z,97.63
2019-02-15T02:40:38.792Z,97.53
2019-02-15T02:41:38.970Z,97.72
2019-02-15T02:42:39.169Z,97.81
2019-02-15T02:43:39.321Z,97.81
2019-02-15T02:44:39.511Z,98.76
2019-02-15T02:45:39.688Z,98.19
2019-02-15T02:46:39.875Z,98.38
2019-02-15T02:47:40.041Z,98.38
2019-02-15T02:48:40.222Z,98.28
2019-02-15T02:49:40.398Z,98.38
2019-02-15T02:50:40.578Z,98.19
2019-02-15T02:51:40.756Z,98.47
2019-02-15T02:52:40.935Z,98.38
2019-02-15T02:53:41.112Z,98.28
2019-02-15T02:54:41.289Z,98.47
2019-02-15T02:55:41.473Z,98.28
2019-02-15T02:56:41.647Z,97.91
2019-02-15T02:57:41.820Z,98.28
2019-02-15T02:58:42.010Z,98.38
2019-02-15T02:59:42.177Z,98.28
2019-02-15T03:00:42.353Z,98.47
2019-02-15T03:01:42.542Z,98.38
2019-02-15T03:02:42.708Z,98.38
2019-02-15T03:03:42.900Z,98.19
2019-02-15T03:04:43.084Z,98.28
2019-02-15T03:05:43.239Z,98.28
2019-02-15T03:06:43.417Z,98.28
2019-02-15T03:07:43.599Z,98.00
2019-02-15T03:08:43.775Z,98.38
2019-02-15T03:09:43.956Z,98.19
2019-02-15T03:10:44.129Z,98.19
2019-02-15T03:11:44.311Z,98.00
2019-02-15T03:12:44.488Z,98.00
2019-02-15T03:13:44.671Z,98.10
2019-02-15T03:14:44.844Z,98.19
2019-02-15T03:15:45.037Z,98.10
2019-02-15T03:16:45.197Z,98.38
2019-02-15T03:17:45.375Z,98.10
2019-02-15T03:18:45.564Z,98.19
2019-02-15T03:19:45.761Z,98.19
2019-02-15T03:20:45.941Z,98.10
2019-02-15T03:21:46.117Z,98.38
2019-02-15T03:22:46.298Z,98.00
2019-02-15T03:23:46.474Z,98.38
2019-02-15T03:24:46.665Z,98.38
2019-02-15T03:25:46.850Z,98.38
2019-02-15T03:26:47.036Z,98.10
2019-02-15T03:27:47.206Z,98.00
2019-02-15T03:28:47.383Z,98.00
2019-02-15T03:29:47.563Z,98.28
2019-02-15T03:30:47.746Z,98.28
2019-02-15T03:31:47.983Z,98.10
2019-02-15T03:32:48.132Z,98.10
2019-02-15T03:33:48.289Z,98.00
2019-02-15T03:34:48.464Z,98.28
2019-02-15T03:35:48.647Z,98.38
2019-02-15T03:36:48.827Z,97.81
2019-02-15T03:37:49.005Z,98.38
2019-02-15T03:38:49.198Z,98.28
2019-02-15T03:39:49.414Z,98.47
2019-02-15T03:40:49.558Z,98.47
2019-02-15T03:41:49.731Z,98.10
2019-02-15T03:42:49.915Z,98.38
2019-02-15T03:43:50.094Z,98.38
2019-02-15T03:44:50.281Z,98.38
2019-02-15T03:45:50.467Z,98.28
2019-02-15T03:46:50.645Z,98.38
2019-02-15T03:47:50.825Z,98.47
2019-02-15T03:48:51.005Z,98.28
2019-02-15T03:49:51.186Z,98.47
2019-02-15T03:50:51.362Z,98.28
2019-02-15T03:51:51.537Z,98.19
2019-02-15T03:52:51.727Z,98.19
2019-02-15T03:53:51.901Z,98.28
2019-02-15T03:54:52.086Z,98.00
2019-02-15T03:55:52.262Z,98.19
2019-02-15T03:56:52.442Z,98.10
2019-02-15T03:57:52.626Z,98.38
2019-02-15T03:58:52.806Z,98.19
2019-02-15T03:59:52.988Z,98.19
2019-02-15T04:00:53.164Z,98.47
2019-02-15T04:01:53.354Z,98.38
2019-02-15T04:02:53.524Z,98.00
2019-02-15T04:03:53.704Z,98.47
2019-02-15T04:04:53.895Z,98.57
2019-02-15T04:05:54.071Z,98.28
2019-02-15T04:06:54.252Z,98.47
2019-02-15T04:07:54.428Z,98.28
2019-02-15T04:08:54.623Z,98.38
2019-02-15T04:09:54.789Z,98.38
2019-02-15T04:10:54.974Z,98.19
2019-02-15T04:11:55.151Z,98.57
2019-02-15T04:12:55.332Z,98.47
2019-02-15T04:13:55.511Z,98.19
2019-02-15T04:14:55.696Z,98.28
2019-02-15T04:15:55.870Z,98.66
2019-02-15T04:16:56.056Z,98.47
2019-02-15T04:17:56.996Z,98.38
2019-02-15T04:18:56.419Z,98.28
2019-02-15T04:19:56.588Z,98.47
2019-02-15T04:20:56.782Z,98.10
2019-02-15T04:21:56.959Z,98.19
2019-02-15T04:22:57.137Z,98.38
2019-02-15T04:23:57.315Z,98.28
2019-02-15T04:24:57.491Z,98.19
2019-02-15T04:25:57.673Z,98.47
2019-02-15T04:26:57.849Z,98.10
2019-02-15T04:27:58.033Z,98.28
2019-02-15T04:28:58.213Z,98.19
2019-02-15T04:29:58.446Z,98.19
2019-02-15T04:30:58.591Z,98.38
2019-02-15T04:31:58.768Z,97.91
2019-02-15T04:32:58.964Z,98.19
2019-02-15T04:33:59.133Z,98.19
2019-02-15T04:34:59.312Z,97.81
2019-02-15T04:35:59.495Z,98.38
2019-02-15T04:36:59.675Z,98.47
2019-02-15T04:37:59.856Z,98.10
2019-02-15T04:41:42.881Z,97.81
2019-02-15T04:42:43.059Z,98.57
2019-02-15T04:43:43.236Z,98.57
2019-02-15T04:44:43.416Z,97.53
2019-02-15T04:45:43.608Z,97.63
2019-02-15T04:46:43.778Z,98.57
2019-02-15T04:47:43.957Z,98.47
2019-02-15T04:48:44.147Z,98.57
2019-02-15T04:49:44.316Z,98.47
2019-02-15T04:50:44.501Z,98.00
2019-02-15T04:51:44.694Z,98.00
2019-02-15T04:52:44.869Z,98.19
2019-02-15T04:53:45.055Z,98.38
2019-02-15T04:54:45.232Z,98.28
2019-02-15T04:55:45.409Z,98.00
2019-02-15T04:56:45.583Z,98.57
2019-02-15T04:57:45.765Z,97.91
2019-02-15T04:58:45.940Z,98.38
2019-02-15T04:59:46.116Z,97.81
2019-02-15T05:00:46.302Z,97.44
2019-02-15T05:01:46.472Z,98.47
2019-02-15T05:02:46.656Z,97.72
2019-02-15T05:03:46.831Z,97.72
2019-02-15T05:04:47.010Z,97.72
2019-02-15T05:05:47.183Z,97.81
2019-02-15T05:06:47.363Z,97.72
2019-02-15T05:07:47.546Z,97.53
2019-02-15T05:08:47.714Z,97.63
2019-02-15T05:09:47.890Z,98.47
2019-02-15T05:10:48.068Z,97.91
2019-02-15T05:11:48.245Z,98.28
2019-02-15T05:12:48.422Z,98.10
2019-02-15T05:13:48.595Z,98.66
2019-02-15T05:14:53.159Z,98.00
2019-02-15T05:15:48.945Z,98.57
2019-02-15T05:16:49.127Z,98.38
2019-02-15T05:17:49.307Z,98.38
2019-02-15T05:18:49.488Z,98.47
2019-02-15T05:19:49.664Z,98.28
2019-02-15T05:20:49.841Z,98.38
2019-02-15T05:21:50.018Z,98.19
2019-02-15T05:22:50.191Z,98.38
2019-02-15T05:23:50.374Z,98.47
2019-02-15T05:24:50.565Z,98.28
2019-02-15T05:25:50.824Z,98.57
2019-02-15T05:26:50.922Z,98.57
2019-02-15T05:27:51.102Z,98.10
2019-02-15T05:28:51.274Z,98.38
2019-02-15T05:29:51.454Z,98.00
2019-02-15T05:30:51.636Z,97.53
2019-02-15T05:31:51.805Z,97.53
2019-02-15T05:32:51.988Z,98.38
2019-02-15T05:33:52.163Z,97.72
2019-02-15T05:34:52.341Z,97.91
2019-02-15T05:35:52.521Z,98.66
2019-02-15T05:36:52.696Z,98.57
2019-02-15T05:37:52.871Z,98.47
2019-02-15T05:38:53.058Z,98.66
2019-02-15T05:39:53.236Z,98.57
2019-02-15T05:40:53.409Z,98.66
2019-02-15T05:41:53.588Z,98.57
2019-02-15T05:42:53.784Z,98.57
2019-02-15T05:43:53.952Z,98.28
2019-02-15T05:45:03.377Z,98.47
2019-02-15T05:45:54.293Z,98.19
2019-02-15T05:46:54.466Z,98.38
2019-02-15T05:47:54.655Z,98.66
2019-02-15T05:48:54.831Z,98.19
2019-02-15T05:49:55.049Z,98.66
2019-02-15T05:50:55.181Z,98.95
2019-02-15T05:51:55.359Z,98.57
2019-02-15T05:52:55.538Z,98.57
2019-02-15T05:53:55.709Z,98.28
2019-02-15T05:54:55.890Z,98.38
2019-02-15T05:55:56.075Z,98.19
2019-02-15T05:56:56.251Z,98.66
2019-02-15T05:57:56.424Z,98.38
2019-02-15T05:58:56.605Z,98.47
2019-02-15T05:59:56.766Z,98.28
2019-02-15T06:00:56.970Z,98.57
2019-02-15T06:01:57.122Z,98.38
2019-02-15T06:02:57.304Z,98.47
2019-02-15T06:03:57.491Z,98.28
2019-02-15T06:04:57.658Z,98.28
2019-02-15T06:05:57.840Z,98.47
2019-02-15T06:06:58.033Z,98.28
2019-02-15T06:07:58.196Z,98.38
2019-02-15T06:08:58.370Z,98.38
2019-02-15T06:09:58.551Z,98.28
2019-02-15T06:11:06.733Z,98.38
2019-02-15T06:11:58.911Z,98.38
2019-02-15T06:12:59.078Z,98.38
2019-02-15T06:13:59.268Z,98.47
2019-02-15T06:14:59.446Z,98.38
2019-02-15T06:15:59.626Z,98.47
2019-02-15T06:17:01.689Z,98.28
2019-02-15T06:17:59.972Z,98.28
2019-02-15T06:19:00.169Z,98.28
2019-02-15T06:20:00.402Z,98.47
2019-02-15T06:21:00.531Z,98.19
2019-02-15T06:22:00.705Z,98.19
2019-02-15T06:23:00.903Z,98.28
2019-02-15T06:24:01.054Z,98.38
2019-02-15T06:25:01.235Z,98.38
2019-02-15T06:26:01.413Z,98.10
2019-02-15T06:27:01.594Z,98.10
2019-02-15T06:28:01.766Z,98.28
2019-02-15T06:29:01.947Z,98.38
2019-02-15T06:30:02.132Z,98.38
2019-02-15T06:31:02.309Z,98.10
2019-02-15T06:32:02.479Z,98.28
2019-02-15T06:33:02.657Z,98.38
2019-02-15T06:34:02.821Z,98.38
2019-02-15T06:35:03.000Z,98.38
2019-02-15T06:36:03.178Z,98.38
2019-02-15T06:37:03.352Z,98.19
2019-02-15T06:38:03.527Z,98.47
2019-02-15T06:39:03.706Z,98.19
2019-02-15T06:40:03.889Z,98.00
2019-02-15T06:41:04.068Z,98.10
2019-02-15T06:42:04.284Z,98.00
2019-02-15T06:43:04.460Z,98.28
2019-02-15T06:44:04.639Z,98.38
2019-02-15T06:45:04.814Z,98.38
2019-02-15T06:46:04.993Z,98.38
2019-02-15T06:47:05.169Z,98.10
2019-02-15T06:48:05.350Z,97.91
2019-02-15T06:49:05.530Z,98.00
2019-02-15T06:50:05.705Z,97.91
2019-02-15T06:51:05.880Z,97.81
2019-02-15T06:52:06.055Z,97.72
2019-02-15T06:53:06.231Z,98.00
2019-02-15T06:54:06.397Z,97.81
2019-02-15T06:55:06.585Z,98.00
2019-02-15T06:56:06.780Z,97.96
2019-02-15T06:57:06.956Z,97.58
2019-02-15T06:58:07.135Z,97.86
2019-02-15T06:59:07.312Z,97.86
2019-02-15T07:00:07.492Z,97.49
2019-02-15T07:01:07.679Z,97.20
2019-02-15T07:02:07.861Z,97.39
2019-02-15T07:03:08.042Z,97.58
2019-02-15T07:04:08.237Z,97.67
2019-02-15T07:05:08.594Z,97.67
2019-02-15T07:06:08.628Z,97.58
2019-02-15T07:07:08.814Z,97.30
2019-02-15T07:08:09.012Z,97.49
2019-02-15T07:09:09.167Z,97.86
2019-02-15T07:10:09.351Z,97.30
2019-02-15T07:11:09.544Z,97.11
2019-02-15T07:12:09.712Z,97.53
2019-02-15T07:13:09.914Z,97.06
2019-02-15T07:14:10.069Z,97.91
2019-02-15T07:15:10.275Z,98.10
2019-02-15T07:16:10.449Z,99.05
2019-02-15T07:17:10.637Z,98.53
2019-02-15T07:18:10.812Z,99.81
2019-02-15T07:19:10.992Z,99.99
2019-02-15T07:20:11.169Z,99.99
2019-02-15T07:21:11.354Z,99.99
2019-02-15T07:22:11.533Z,99.26
2019-02-15T07:23:11.726Z,97.31
2019-02-15T07:24:11.921Z,96.93
2019-02-15T07:25:12.110Z,94.46
2019-02-15T07:26:12.294Z,92.23
2019-02-15T07:27:12.479Z,90.33
2019-02-15T07:28:12.675Z,88.24
2019-02-15T07:29:12.862Z,86.82
2019-02-15T07:30:13.052Z,86.15
2019-02-15T07:31:13.278Z,86.05
2019-02-15T07:32:13.416Z,85.86
2019-02-15T07:33:13.738Z,84.95
2019-02-15T07:34:13.826Z,84.20
2019-02-15T07:35:14.056Z,84.10
2019-02-15T07:36:14.208Z,83.82
2019-02-15T07:37:14.396Z,83.15
2019-02-15T07:38:14.585Z,81.73
2019-02-15T07:39:14.780Z,82.29
2019-02-15T07:40:14.982Z,82.73
2019-02-15T07:41:15.156Z,83.30
2019-02-15T07:42:15.357Z,83.20
2019-02-15T07:43:15.527Z,83.01
2019-02-15T07:44:15.739Z,82.35
2019-02-15T07:45:17.762Z,83.11
2019-02-15T07:46:16.120Z,83.49
2019-02-15T07:47:16.309Z,82.64
2019-02-15T07:48:16.505Z,83.11
2019-02-15T07:49:16.693Z,83.39
2019-02-15T07:50:16.888Z,83.49
2019-02-15T07:51:17.103Z,82.82
2019-02-15T07:52:17.281Z,82.73
2019-02-15T07:53:17.452Z,82.64
2019-02-15T07:54:17.746Z,83.30
2019-02-15T07:55:17.812Z,84.16
2019-02-15T07:56:17.999Z,83.68
2019-02-15T07:57:18.203Z,83.59
2019-02-15T07:58:18.400Z,82.92
2019-02-15T07:59:18.591Z,83.11
2019-02-15T08:00:18.778Z,82.10
2019-02-15T08:01:18.965Z,81.16
2019-02-15T08:02:19.162Z,80.91
2019-02-15T08:03:19.354Z,79.86
2019-02-15T08:04:19.542Z,79.96
2019-02-15T08:05:19.743Z,80.15
2019-02-15T08:06:19.930Z,80.34
2019-02-15T08:07:20.117Z,79.86
2019-02-15T08:08:20.313Z,79.58
2019-02-15T08:09:20.512Z,78.77
2019-02-15T08:10:20.693Z,77.87
2019-02-15T08:11:20.884Z,77.49
2019-02-15T08:12:21.070Z,78.53
2019-02-15T08:13:21.266Z,78.25
2019-02-15T08:14:21.454Z,78.91
2019-02-15T08:15:21.686Z,78.91
2019-02-15T08:16:21.847Z,77.62
2019-02-15T08:17:22.035Z,77.53
2019-02-15T08:18:22.239Z,76.67
2019-02-15T08:19:22.445Z,77.34
2019-02-15T08:20:22.630Z,77.43
2019-02-15T08:21:22.824Z,76.71
2019-02-15T08:22:23.021Z,75.04
2019-02-15T08:23:23.230Z,74.37
2019-02-15T08:24:23.404Z,74.62
2019-02-15T08:25:23.629Z,75.09
2019-02-15T08:26:23.814Z,75.47
2019-02-15T08:27:24.006Z,75.85
2019-02-15T08:28:24.209Z,75.24
2019-02-15T08:29:24.400Z,75.67
2019-02-15T08:30:24.594Z,74.99
2019-02-15T08:31:24.791Z,74.24
2019-02-15T08:32:24.991Z,73.22
2019-02-15T08:33:25.180Z,73.03
2019-02-15T08:34:25.400Z,72.90
2019-02-15T08:35:25.576Z,72.90
2019-02-15T08:36:25.770Z,73.57
2019-02-15T08:37:25.964Z,73.76
2019-02-15T08:38:27.457Z,73.22
2019-02-15T08:39:26.349Z,73.10
2019-02-15T08:40:26.538Z,73.57
2019-02-15T08:41:26.738Z,75.24
2019-02-15T08:42:26.933Z,75.09
2019-02-15T08:43:27.128Z,74.80
2019-02-15T08:44:27.324Z,75.15
2019-02-15T08:45:27.522Z,76.29
2019-02-15T08:46:27.714Z,76.39
2019-02-15T08:47:27.912Z,76.14
2019-02-15T08:48:28.120Z,75.38
2019-02-15T08:49:28.326Z,75.47
2019-02-15T08:50:28.511Z,74.99
2019-02-15T08:51:28.710Z,76.10
2019-02-15T08:52:28.898Z,76.48
2019-02-15T08:53:29.099Z,76.67
2019-02-15T08:54:29.296Z,77.05
2019-02-15T08:55:29.492Z,77.53
2019-02-15T08:56:29.695Z,76.96
2019-02-15T08:57:29.889Z,76.76
2019-02-15T08:58:30.088Z,76.20
2019-02-15T08:59:30.287Z,76.23
2019-02-15T09:00:30.475Z,75.95
2019-02-15T09:01:30.672Z,75.85
2019-02-15T09:02:30.867Z,75.67
2019-02-15T09:03:31.078Z,75.72
2019-02-15T09:04:31.268Z,76.42
2019-02-15T09:05:31.462Z,76.42
2019-02-15T09:06:31.661Z,76.23
2019-02-15T09:07:31.886Z,75.67
2019-02-15T09:08:32.055Z,74.99
2019-02-15T09:09:32.250Z,75.57
2019-02-15T09:10:32.450Z,75.57
2019-02-15T09:11:32.643Z,76.04
2019-02-15T09:12:32.861Z,75.47
2019-02-15T09:13:33.036Z,75.57
2019-02-15T09:14:33.230Z,75.51
2019-02-15T09:15:33.431Z,75.60
2019-02-15T09:16:33.639Z,75.47
2019-02-15T09:17:33.834Z,75.89
2019-02-15T09:18:34.045Z,75.13
2019-02-15T09:19:34.241Z,74.98
2019-02-15T09:20:34.436Z,73.45
2019-02-15T09:21:34.646Z,73.36
2019-02-15T09:22:34.828Z,72.92
2019-02-15T09:23:35.023Z,72.63
2019-02-15T09:24:35.226Z,71.43
2019-02-15T09:25:35.444Z,71.33
2019-02-15T09:26:35.635Z,71.14
2019-02-15T09:27:35.826Z,70.28
2019-02-15T09:28:36.036Z,70.47
2019-02-15T09:29:36.231Z,69.90
2019-02-15T09:30:36.426Z,69.08
2019-02-15T09:31:36.616Z,68.03
2019-02-15T09:32:36.816Z,67.83
2019-02-15T09:33:37.033Z,68.44
2019-02-15T09:34:37.266Z,67.43
2019-02-15T09:35:37.410Z,67.01
2019-02-15T09:36:37.627Z,66.82
2019-02-15T09:37:37.831Z,66.38
2019-02-15T09:38:38.043Z,66.47
2019-02-15T09:39:39.532Z,65.93
2019-02-15T09:40:38.441Z,65.74
2019-02-15T09:41:38.637Z,65.55
2019-02-15T09:42:38.843Z,64.59
2019-02-15T09:43:39.040Z,64.47
2019-02-15T09:44:39.232Z,65.23
2019-02-15T09:45:39.431Z,65.45
2019-02-15T09:46:39.629Z,64.53
2019-02-15T09:47:39.848Z,63.96
2019-02-15T09:48:40.050Z,63.96
2019-02-15T09:49:40.248Z,64.22
2019-02-15T09:50:40.449Z,65.55
2019-02-15T09:51:40.644Z,65.04
2019-02-15T09:52:40.845Z,65.17
2019-02-15T09:53:41.040Z,64.53
2019-02-15T09:54:41.241Z,64.85
2019-02-15T09:55:41.437Z,66.22
2019-02-15T09:56:41.644Z,65.36
2019-02-15T09:57:41.850Z,64.43
2019-02-15T09:58:42.055Z,64.12
2019-02-15T09:59:42.251Z,64.28
2019-02-15T10:00:42.456Z,65.80
2019-02-15T10:01:42.662Z,66.00
2019-02-15T10:02:42.860Z,66.03
2019-02-15T10:03:43.059Z,65.74
2019-02-15T10:04:43.260Z,64.56
2019-02-15T10:05:43.450Z,65.80
2019-02-15T10:06:43.656Z,66.03
2019-02-15T10:07:43.859Z,64.72
2019-02-15T10:08:44.059Z,64.56
2019-02-15T10:09:44.255Z,64.47
2019-02-15T10:10:44.449Z,64.28
2019-02-15T10:11:44.655Z,63.51
2019-02-15T10:12:44.857Z,63.16
2019-02-15T10:13:45.056Z,62.01
2019-02-15T10:14:45.254Z,62.30
2019-02-15T10:15:45.452Z,62.62
2019-02-15T10:16:45.653Z,60.99
2019-02-15T10:17:45.859Z,60.00
2019-02-15T10:18:46.073Z,58.37
2019-02-15T10:19:46.259Z,58.34
2019-02-15T10:20:46.458Z,58.24
2019-02-15T10:21:46.658Z,58.24
2019-02-15T10:22:46.858Z,58.37
2019-02-15T10:23:47.064Z,57.79
2019-02-15T10:24:47.262Z,56.67
2019-02-15T10:25:47.477Z,56.74
2019-02-15T10:26:47.674Z,57.70
2019-02-15T10:27:48.051Z,58.34
2019-02-15T10:28:48.075Z,59.39
2019-02-15T10:29:48.274Z,59.90
2019-02-15T10:30:48.475Z,60.28
2019-02-15T10:31:48.695Z,59.42
2019-02-15T10:32:48.892Z,58.84
2019-02-15T10:33:49.091Z,59.42
2019-02-15T10:34:49.291Z,59.11
2019-02-15T10:35:49.527Z,59.65
2019-02-15T10:36:49.702Z,60.93
2019-02-15T10:37:49.910Z,60.99
2019-02-15T10:38:50.109Z,61.76
2019-02-15T10:39:50.314Z,61.66
2019-02-15T10:40:50.512Z,60.99
2019-02-15T10:41:50.714Z,60.64
2019-02-15T10:42:50.966Z,60.64
2019-02-15T10:43:51.126Z,60.93
2019-02-15T10:44:51.326Z,61.21
2019-02-15T10:45:51.536Z,60.96
2019-02-15T10:46:51.725Z,59.52
2019-02-15T10:47:51.926Z,62.74
2019-02-15T10:48:52.124Z,61.82
2019-02-15T10:49:52.316Z,61.34
2019-02-15T10:50:52.525Z,60.44
2019-02-15T10:51:52.733Z,59.20
2019-02-15T10:52:52.926Z,58.44
2019-02-15T10:53:53.125Z,57.79
2019-02-15T10:54:53.327Z,57.86
2019-02-15T10:55:53.564Z,58.53
2019-02-15T10:56:53.779Z,58.72
2019-02-15T10:57:53.965Z,58.62
2019-02-15T10:58:54.166Z,58.46
2019-02-15T10:59:54.366Z,58.46
2019-02-15T11:00:54.565Z,57.24
2019-02-15T11:01:54.766Z,56.57
2019-02-15T11:02:54.985Z,55.35
2019-02-15T11:03:55.179Z,56.48
2019-02-15T11:04:55.371Z,55.62
2019-02-15T11:05:55.577Z,56.41
2019-02-15T11:06:55.780Z,56.41
2019-02-15T11:07:55.995Z,55.83
2019-02-15T11:08:56.178Z,55.21
2019-02-15T11:09:56.386Z,56.90
2019-02-15T11:10:56.589Z,60.06
2019-02-15T11:11:56.802Z,59.36
2019-02-15T11:12:57.006Z,57.65
2019-02-15T11:13:57.213Z,56.44
2019-02-15T11:14:57.428Z,55.74
2019-02-15T11:15:57.635Z,56.05
2019-02-15T11:16:57.828Z,54.80
2019-02-15T11:17:58.033Z,53.87
2019-02-15T11:18:58.232Z,53.61
2019-02-15T11:19:58.439Z,53.52
2019-02-15T11:20:58.640Z,53.20
2019-02-15T11:21:58.847Z,54.13
2019-02-15T11:22:59.054Z,54.71
2019-02-15T11:23:59.245Z,53.58
2019-02-15T11:24:59.457Z,53.30
2019-02-15T11:25:59.654Z,53.66
2019-02-15T11:26:59.877Z,53.58
2019-02-15T11:28:00.066Z,52.91
2019-02-15T11:29:00.263Z,53.75
2019-02-15T11:30:00.468Z,54.93
2019-02-15T11:31:00.667Z,54.33
2019-02-15T11:32:00.878Z,53.20
2019-02-15T11:33:01.076Z,52.34
2019-02-15T11:34:01.284Z,51.57
2019-02-15T11:35:01.482Z,52.84
2019-02-15T11:36:01.715Z,52.36
2019-02-15T11:37:01.882Z,52.62
2019-02-15T11:38:02.090Z,53.61
2019-02-15T11:39:02.286Z,54.47
2019-02-15T11:40:02.484Z,54.25
2019-02-15T11:41:10.902Z,54.38
2019-02-15T11:42:02.901Z,53.16
2019-02-15T11:43:03.103Z,53.74
2019-02-15T11:44:03.303Z,52.68
2019-02-15T11:45:03.498Z,52.34
2019-02-15T11:46:03.705Z,52.72
2019-02-15T11:47:03.917Z,52.36
2019-02-15T11:48:04.119Z,52.46
2019-02-15T11:49:04.331Z,52.34
2019-02-15T11:50:04.518Z,52.72
2019-02-15T11:51:04.718Z,53.68
2019-02-15T11:52:04.926Z,53.58
2019-02-15T11:53:05.128Z,53.56
2019-02-15T11:54:05.346Z,54.16
2019-02-15T11:55:05.549Z,53.58
2019-02-15T11:56:05.749Z,52.91
2019-02-15T11:57:05.942Z,52.17
2019-02-15T11:58:06.153Z,52.65
2019-02-15T11:59:06.361Z,51.43
2019-02-15T12:00:13.823Z,50.76
2019-02-15T12:01:06.756Z,51.04
2019-02-15T12:02:06.988Z,50.76
2019-02-15T12:03:07.147Z,50.18
2019-02-15T12:04:07.352Z,50.56
2019-02-15T12:05:07.552Z,51.33
2019-02-15T12:06:07.752Z,51.21
2019-02-15T12:07:07.952Z,50.85
2019-02-15T12:08:08.153Z,51.02
2019-02-15T12:09:08.366Z,50.92
2019-02-15T12:10:08.545Z,49.96
2019-02-15T12:11:08.744Z,49.62
2019-02-15T12:12:10.982Z,52.36
2019-02-15T12:13:09.138Z,54.78
2019-02-15T12:14:09.333Z,55.33
2019-02-15T12:15:09.551Z,55.23
2019-02-15T12:16:09.761Z,56.22
2019-02-15T12:17:09.955Z,54.27
2019-02-15T12:18:10.142Z,53.99
2019-02-15T12:19:10.344Z,53.41
2019-02-15T12:20:10.544Z,53.17
2019-02-15T12:21:10.748Z,52.40
2019-02-15T12:22:10.944Z,51.49
2019-02-15T12:23:11.139Z,53.89
2019-02-15T12:24:11.348Z,53.34
2019-02-15T12:25:11.580Z,52.60
2019-02-15T12:26:11.796Z,52.24
2019-02-15T12:27:11.996Z,51.59
2019-02-15T12:28:12.202Z,51.28
2019-02-15T12:29:12.406Z,53.41
2019-02-15T12:30:12.581Z,53.46
2019-02-15T12:31:12.790Z,51.57
2019-02-15T12:32:12.994Z,50.84
2019-02-15T12:33:13.183Z,51.32
2019-02-15T12:34:13.372Z,51.16
2019-02-15T12:35:13.571Z,51.81
2019-02-15T12:36:13.767Z,51.81
2019-02-15T12:37:13.964Z,51.35
2019-02-15T12:38:14.152Z,51.57
2019-02-15T12:39:14.489Z,51.47
2019-02-15T12:40:14.547Z,51.61
2019-02-15T12:41:14.760Z,52.98
2019-02-15T12:42:14.968Z,53.46
2019-02-15T12:43:15.157Z,52.60
2019-02-15T12:44:15.345Z,52.93
2019-02-15T12:45:15.547Z,53.53
2019-02-15T12:46:15.744Z,52.60
2019-02-15T12:47:15.929Z,51.57
2019-02-15T12:48:16.143Z,51.37
2019-02-15T12:49:16.341Z,50.82
2019-02-15T12:50:16.567Z,49.65
2019-02-15T12:51:16.761Z,49.65
2019-02-15T12:52:16.960Z,49.19
2019-02-15T12:53:17.153Z,49.19
2019-02-15T12:54:17.364Z,48.90
2019-02-15T12:55:17.561Z,48.45
2019-02-15T12:56:17.756Z,48.64
2019-02-15T12:57:17.953Z,49.41